Terminal Aerodrome Forecast
Issued by NWS

Home | Current Version | Previous Version | Text Only | Print | Product List | Glossary On
Versions: 1 2 3 4 5 6 7 8 9 10 11 12 13 14 15 16 17 18 19
000
FTUS41 KILN 292338
TAFLCK
TAF
KLCK 292338Z 3000/3024 35006KT P6SM VCTS SCT040CB SCT120
      TEMPO 3000/3002 27008G25KT 3SM -TSRA BR BKN025CB
     FM300600 34006KT P6SM SCT020
     FM301400 31007KT P6SM FEW035
     FM302200 VRB04KT P6SM SKC=

USA.gov is the U.S. government's official web portal to all federal, state and local government web resources and services.